createdAt,value
2022-10-05T00:00:21.380Z,101800.83
2022-10-05T00:03:11.119Z,101803.33
2022-10-05T00:05:40.360Z,101809.70
2022-10-05T00:08:13.756Z,101811.59
2022-10-05T00:10:43.239Z,101816.52
2022-10-05T00:13:20.768Z,101818.58
2022-10-05T00:15:49.652Z,101816.42
2022-10-05T00:18:20.186Z,101819.98
2022-10-05T00:20:49.391Z,101822.26
2022-10-05T00:23:36.164Z,101827.05
2022-10-05T00:26:12.966Z,101826.77
2022-10-05T00:28:41.758Z,101830.69
2022-10-05T00:31:31.979Z,101835.95
2022-10-05T00:34:00.427Z,101838.51
2022-10-05T00:36:29.497Z,101836.77
2022-10-05T00:39:00.669Z,101839.14
2022-10-05T00:41:29.355Z,101836.54
2022-10-05T00:44:03.959Z,101842.95
2022-10-05T00:46:38.505Z,101840.89
2022-10-05T00:49:06.782Z,101837.42
2022-10-05T00:51:36.795Z,101840.30
2022-10-05T00:54:24.223Z,101845.30
2022-10-05T00:56:55.760Z,101847.45
2022-10-05T00:59:50.147Z,101852.62
2022-10-05T01:02:18.601Z,101855.71
2022-10-05T01:04:53.136Z,101859.42
2022-10-05T01:07:31.076Z,101864.66
2022-10-05T01:09:59.350Z,101863.92
2022-10-05T01:12:46.328Z,101854.98
2022-10-05T01:15:17.920Z,101849.23
2022-10-05T01:17:46.403Z,101850.46
2022-10-05T01:20:14.680Z,101857.73
2022-10-05T01:22:46.336Z,101866.37
2022-10-05T01:25:30.535Z,101876.02
2022-10-05T01:27:59.092Z,101882.14
2022-10-05T01:30:31.629Z,101884.06
2022-10-05T01:33:19.174Z,101884.94
2022-10-05T01:35:58.613Z,101887.14
2022-10-05T01:38:39.077Z,101889.83
2022-10-05T01:41:07.763Z,101892.05
2022-10-05T01:43:40.036Z,101894.40
2022-10-05T01:46:11.611Z,101897.00
2022-10-05T01:48:45.087Z,101901.23
2022-10-05T01:51:16.334Z,101903.85
2022-10-05T01:53:54.135Z,101906.39
2022-10-05T01:56:22.610Z,101912.04
2022-10-05T01:58:57.756Z,101915.86
2022-10-05T02:01:28.846Z,101919.09
2022-10-05T02:04:18.646Z,101916.67
2022-10-05T02:07:02.623Z,101920.99
2022-10-05T02:09:37.783Z,101921.78
2022-10-05T02:12:08.187Z,101927.02
2022-10-05T02:14:39.537Z,101930.86
2022-10-05T02:17:14.474Z,101936.63
2022-10-05T02:19:45.212Z,101938.94
2022-10-05T02:22:20.650Z,101939.35
2022-10-05T02:24:52.276Z,101939.68
2022-10-05T02:27:23.757Z,101942.85
2022-10-05T02:29:56.848Z,101949.69
2022-10-05T02:32:29.529Z,101959.75
2022-10-05T02:35:01.699Z,101962.05
2022-10-05T02:37:40.914Z,101963.45
2022-10-05T02:40:09.617Z,101964.89
2022-10-05T02:42:37.904Z,101970.21
2022-10-05T02:45:09.448Z,101967.74
2022-10-05T02:47:42.791Z,101971.13
2022-10-05T02:50:30.372Z,101976.21
2022-10-05T02:53:02.130Z,101979.17
2022-10-05T02:55:49.352Z,101981.75
2022-10-05T02:58:25.411Z,101980.05
2022-10-05T03:01:09.602Z,101979.52
2022-10-05T03:03:42.139Z,101980.70
2022-10-05T03:06:18.303Z,101984.96
2022-10-05T03:09:06.750Z,101990.79
2022-10-05T03:12:14.657Z,101999.70
2022-10-05T03:14:43.151Z,102002.13
2022-10-05T03:17:22.884Z,102008.06
2022-10-05T03:20:10.310Z,102010.63
2022-10-05T03:22:47.703Z,102008.57
2022-10-05T03:25:25.807Z,102011.44
2022-10-05T03:28:27.022Z,102008.56
2022-10-05T03:30:55.800Z,102008.76
2022-10-05T03:33:24.432Z,102017.08
2022-10-05T03:36:17.389Z,102018.10
2022-10-05T03:39:06.245Z,102020.79
2022-10-05T03:41:43.051Z,102023.44
2022-10-05T03:44:30.756Z,102026.09
2022-10-05T03:47:05.857Z,102026.21
2022-10-05T03:49:53.422Z,102029.77
2022-10-05T03:52:26.726Z,102029.86
2022-10-05T03:55:01.956Z,102031.75
2022-10-05T03:57:34.638Z,102031.21
2022-10-05T04:00:06.908Z,102036.52
2022-10-05T04:03:11.541Z,102035.40
2022-10-05T04:05:47.289Z,102039.13
2022-10-05T04:08:23.656Z,102043.43
2022-10-05T04:10:54.252Z,102046.29
2022-10-05T04:13:47.654Z,102053.58
2022-10-05T04:16:18.988Z,102058.92
2022-10-05T04:18:47.484Z,102062.67
2022-10-05T04:21:25.795Z,102070.40
2022-10-05T04:24:03.803Z,102076.21
2022-10-05T04:26:39.924Z,102079.90
2022-10-05T04:29:21.143Z,102087.02
2022-10-05T04:32:15.737Z,102093.61
2022-10-05T04:34:59.784Z,102098.20
2022-10-05T04:37:34.535Z,102104.59
2022-10-05T04:40:21.938Z,102103.68
2022-10-05T04:43:13.917Z,102107.59
2022-10-05T04:45:54.537Z,102109.39
2022-10-05T04:48:44.936Z,102114.36
2022-10-05T04:51:32.973Z,102114.05
2022-10-05T04:54:21.622Z,102113.98
2022-10-05T04:56:55.435Z,102123.52
2022-10-05T04:59:25.349Z,102128.30
2022-10-05T05:02:12.777Z,102130.58
2022-10-05T05:04:59.791Z,102126.72
2022-10-05T05:07:34.724Z,102131.09
2022-10-05T05:10:21.537Z,102136.38
2022-10-05T05:12:50.320Z,102138.79
2022-10-05T05:15:31.095Z,102141.59
2022-10-05T05:18:18.420Z,102140.95
2022-10-05T05:21:02.370Z,102142.41
2022-10-05T05:23:43.933Z,102138.00
2022-10-05T05:26:18.885Z,102139.11
2022-10-05T05:28:47.266Z,102142.98
2022-10-05T05:31:24.853Z,102142.64
2022-10-05T05:33:53.863Z,102140.93
2022-10-05T05:36:26.718Z,102141.59
2022-10-05T05:39:14.234Z,102139.51
2022-10-05T05:41:43.270Z,102140.88
2022-10-05T05:44:11.842Z,102139.91
2022-10-05T05:47:03.399Z,102145.57
2022-10-05T05:49:36.667Z,102150.73
2022-10-05T05:52:10.274Z,102151.83
2022-10-05T05:54:44.741Z,102148.48
2022-10-05T05:57:20.036Z,102155.20
2022-10-05T06:00:14.317Z,102162.91
2022-10-05T06:02:53.156Z,102166.62
2022-10-05T06:05:25.395Z,102168.80
2022-10-05T06:07:54.513Z,102174.59
2022-10-05T06:10:29.957Z,102183.15
2022-10-05T06:13:06.805Z,102186.16
2022-10-05T06:15:55.822Z,102187.07
2022-10-05T06:18:25.305Z,102190.23
2022-10-05T06:21:02.012Z,102197.48
2022-10-05T06:23:46.640Z,102194.13
2022-10-05T06:26:21.687Z,102196.27
2022-10-05T06:28:59.173Z,102199.89
2022-10-05T06:31:42.841Z,102205.80
2022-10-05T06:34:35.457Z,102209.11
2022-10-05T06:37:12.340Z,102207.86
2022-10-05T06:40:13.485Z,102208.77
2022-10-05T06:42:45.039Z,102208.56
2022-10-05T06:45:40.096Z,102207.05
2022-10-05T06:48:25.729Z,102208.60
2022-10-05T06:51:30.052Z,102207.78
2022-10-05T06:54:08.376Z,102203.80
2022-10-05T06:56:44.047Z,102203.52
2022-10-05T06:59:24.376Z,102201.30
2022-10-05T07:01:57.203Z,102204.95
2022-10-05T07:04:26.671Z,102203.42
2022-10-05T07:06:58.835Z,102207.05
2022-10-05T07:09:27.319Z,102208.27
2022-10-05T07:12:15.974Z,102209.07
2022-10-05T07:14:53.673Z,102215.94
2022-10-05T07:17:22.444Z,102221.86
2022-10-05T07:19:58.828Z,102221.95
2022-10-05T07:22:37.041Z,102226.60
2022-10-05T07:25:11.341Z,102218.61
2022-10-05T07:27:51.867Z,102219.97
2022-10-05T07:30:21.229Z,102213.38
2022-10-05T07:33:09.762Z,102216.00
2022-10-05T07:36:06.320Z,102212.84
2022-10-05T07:38:54.363Z,102212.88
2022-10-05T07:41:32.575Z,102218.30
2022-10-05T07:44:13.652Z,102219.66
2022-10-05T07:46:55.888Z,102221.06
2022-10-05T07:49:36.833Z,102223.90
2022-10-05T07:52:13.817Z,102226.42
2022-10-05T07:54:45.865Z,102226.99
2022-10-05T07:57:30.238Z,102234.36
2022-10-05T08:00:05.475Z,102234.84
2022-10-05T08:02:46.094Z,102235.48
2022-10-05T08:05:15.300Z,102243.14
2022-10-05T08:07:43.620Z,102246.32
2022-10-05T08:10:36.884Z,102247.91
2022-10-05T08:13:15.219Z,102249.79
2022-10-05T08:15:48.697Z,102252.13
2022-10-05T08:18:21.426Z,102256.25
2022-10-05T08:20:49.966Z,102253.14
2022-10-05T08:23:42.817Z,102255.80
2022-10-05T08:26:17.933Z,102252.80
2022-10-05T08:28:52.687Z,102258.65
2022-10-05T08:31:23.888Z,102260.91
2022-10-05T08:34:27.950Z,102258.37
2022-10-05T08:37:05.446Z,102257.17
2022-10-05T08:39:41.300Z,102252.05
2022-10-05T08:42:28.497Z,102255.06
2022-10-05T08:45:27.140Z,102251.76
2022-10-05T08:48:04.837Z,102248.65
2022-10-05T08:50:48.814Z,102251.61
2022-10-05T08:53:36.078Z,102251.76
2022-10-05T08:56:28.506Z,102248.01
2022-10-05T08:59:04.379Z,102254.19
2022-10-05T09:01:38.722Z,102255.30
2022-10-05T09:04:25.818Z,102256.00
2022-10-05T09:07:01.413Z,102258.02
2022-10-05T09:09:35.994Z,102260.41
2022-10-05T09:12:13.386Z,102261.80
2022-10-05T09:15:01.285Z,102261.24
2022-10-05T09:17:39.342Z,102267.02
2022-10-05T09:20:17.932Z,102269.80
2022-10-05T09:22:57.699Z,102268.15
2022-10-05T09:25:28.969Z,102266.67
2022-10-05T09:28:11.424Z,102266.86
2022-10-05T09:30:49.598Z,102264.35
2022-10-05T09:33:27.574Z,102264.59
2022-10-05T09:36:16.123Z,102256.41
2022-10-05T09:39:17.052Z,102257.39
2022-10-05T09:41:51.366Z,102254.13
2022-10-05T09:44:22.532Z,102255.83
2022-10-05T09:47:09.757Z,102259.23
2022-10-05T09:49:50.527Z,102256.48
2022-10-05T09:52:37.645Z,102255.96
2022-10-05T09:55:21.202Z,102253.96
2022-10-05T09:58:08.407Z,102253.27
2022-10-05T10:00:59.552Z,102246.63
2022-10-05T10:03:43.776Z,102244.84
2022-10-05T10:06:30.893Z,102240.86
2022-10-05T10:09:10.058Z,102238.02
2022-10-05T10:11:44.487Z,102236.99
2022-10-05T10:14:32.180Z,102235.75
2022-10-05T10:17:08.854Z,102233.30
2022-10-05T10:19:46.554Z,102229.66
2022-10-05T10:22:33.830Z,102221.98
2022-10-05T10:25:05.445Z,102220.48
2022-10-05T10:28:03.447Z,102215.80
2022-10-05T10:30:41.331Z,102213.80
2022-10-05T10:33:28.430Z,102210.01
2022-10-05T10:36:06.142Z,102212.77
2022-10-05T10:38:47.617Z,102208.64
2022-10-05T10:41:16.275Z,102204.05
2022-10-05T10:43:47.653Z,102194.02
2022-10-05T10:46:16.324Z,102193.38
2022-10-05T10:49:06.769Z,102190.53
2022-10-05T10:51:50.481Z,102185.14
2022-10-05T10:54:18.859Z,102180.20
2022-10-05T10:57:06.268Z,102177.43
2022-10-05T10:59:53.508Z,102176.19
2022-10-05T11:02:22.334Z,102171.98
2022-10-05T11:04:56.708Z,102172.63
2022-10-05T11:07:43.516Z,102175.19
2022-10-05T11:10:30.550Z,102176.18
2022-10-05T11:13:14.599Z,102174.86
2022-10-05T11:15:49.005Z,102174.14
2022-10-05T11:18:40.851Z,102178.05
2022-10-05T11:21:21.109Z,102177.58
2022-10-05T11:23:55.635Z,102173.39
2022-10-05T11:26:27.292Z,102177.09
2022-10-05T11:29:08.128Z,102180.08
2022-10-05T11:31:59.151Z,102185.98
2022-10-05T11:34:27.863Z,102189.92
2022-10-05T11:36:56.447Z,102189.48
2022-10-05T11:39:44.081Z,102190.58
2022-10-05T11:42:31.302Z,102189.70
2022-10-05T11:45:19.854Z,102181.13
2022-10-05T11:47:57.358Z,102181.85
2022-10-05T11:50:53.182Z,102176.91
2022-10-05T11:53:28.619Z,102178.84
2022-10-05T11:56:04.786Z,102168.36
2022-10-05T11:58:35.927Z,102164.48
2022-10-05T12:01:17.516Z,102163.30
2022-10-05T12:03:48.802Z,102158.80
2022-10-05T12:06:32.606Z,102150.29
2022-10-05T12:09:01.093Z,102143.01
2022-10-05T12:11:40.222Z,102136.48
2022-10-05T12:14:20.582Z,102131.11
2022-10-05T12:16:48.963Z,102127.16
2022-10-05T12:19:17.553Z,102128.73
2022-10-05T12:21:49.130Z,102124.55
2022-10-05T12:24:24.575Z,102129.33
2022-10-05T12:26:55.489Z,102129.54
2022-10-05T12:29:23.839Z,102132.66
2022-10-05T12:32:04.538Z,102134.85
2022-10-05T12:34:45.416Z,102143.35
2022-10-05T12:37:32.744Z,102142.10
2022-10-05T12:40:19.930Z,102137.52
2022-10-05T12:42:55.096Z,102123.30
2022-10-05T12:45:23.734Z,102130.59
2022-10-05T12:48:02.506Z,102129.30
2022-10-05T12:50:34.140Z,102133.38
2022-10-05T12:53:11.759Z,102133.14
2022-10-05T12:55:58.879Z,102126.55
2022-10-05T12:58:52.244Z,102131.85
2022-10-05T13:01:20.728Z,102133.47
2022-10-05T13:03:53.512Z,102132.73
2022-10-05T13:06:41.552Z,102132.55
2022-10-05T13:09:16.184Z,102125.31
2022-10-05T13:11:48.351Z,102122.61
2022-10-05T13:14:44.687Z,102124.29
2022-10-05T13:17:30.066Z,102122.77
2022-10-05T13:20:02.746Z,102120.16
2022-10-05T13:22:35.221Z,102117.46
2022-10-05T13:25:03.983Z,102114.23
2022-10-05T13:27:35.974Z,102109.06
2022-10-05T13:30:04.339Z,102114.54
2022-10-05T13:32:36.013Z,102110.09
2022-10-05T13:35:09.206Z,102104.73
2022-10-05T13:37:40.044Z,102099.16
2022-10-05T13:40:18.952Z,102100.64
2022-10-05T13:42:50.425Z,102097.35
2022-10-05T13:45:26.733Z,102095.37
2022-10-05T13:48:01.318Z,102098.92
2022-10-05T13:50:35.439Z,102098.24
2022-10-05T13:53:06.473Z,102098.89
2022-10-05T13:55:41.188Z,102095.66
2022-10-05T13:58:09.583Z,102094.53
2022-10-05T14:00:46.028Z,102099.63
2022-10-05T14:03:24.681Z,102098.08
2022-10-05T14:05:55.897Z,102096.80
2022-10-05T14:08:35.463Z,102093.54
2022-10-05T14:11:28.932Z,102094.98
2022-10-05T14:14:12.776Z,102098.44
2022-10-05T14:16:52.880Z,102098.24
2022-10-05T14:19:24.179Z,102098.67
2022-10-05T14:22:00.943Z,102095.65
2022-10-05T14:24:45.349Z,102099.02
2022-10-05T14:27:21.595Z,102100.98
2022-10-05T14:30:01.837Z,102096.66
2022-10-05T14:32:32.139Z,102096.95
2022-10-05T14:35:05.362Z,102099.64
2022-10-05T14:37:43.771Z,102095.48
2022-10-05T14:40:27.140Z,102095.23
2022-10-05T14:42:55.840Z,102095.77
2022-10-05T14:45:30.331Z,102095.11
2022-10-05T14:48:02.178Z,102091.38
2022-10-05T14:50:31.655Z,102091.64
2022-10-05T14:53:04.157Z,102090.89
2022-10-05T14:55:35.505Z,102094.02
2022-10-05T14:58:09.827Z,102097.25
2022-10-05T15:00:48.873Z,102094.59
2022-10-05T15:03:27.497Z,102095.30
2022-10-05T15:05:59.205Z,102096.77
2022-10-05T15:08:46.357Z,102099.67
2022-10-05T15:11:24.977Z,102099.37
2022-10-05T15:13:53.937Z,102094.45
2022-10-05T15:16:28.879Z,102095.91
2022-10-05T15:19:07.728Z,102097.86
2022-10-05T15:21:54.950Z,102103.03
2022-10-05T15:24:29.195Z,102103.30
2022-10-05T15:26:59.595Z,102101.59
2022-10-05T15:29:31.252Z,102102.46
2022-10-05T15:32:18.580Z,102105.95
2022-10-05T15:35:06.414Z,102106.91
2022-10-05T15:37:42.668Z,102110.11
2022-10-05T15:40:20.377Z,102113.77
2022-10-05T15:42:53.466Z,102115.70
2022-10-05T15:45:32.970Z,102119.05
2022-10-05T15:48:04.358Z,102120.34
2022-10-05T15:50:38.061Z,102120.60
2022-10-05T15:53:16.991Z,102124.86
2022-10-05T15:55:51.821Z,102125.42
2022-10-05T15:58:31.541Z,102125.05
2022-10-05T16:01:19.055Z,102126.44
2022-10-05T16:04:00.024Z,102131.48
2022-10-05T16:06:50.366Z,102130.98
2022-10-05T16:09:41.377Z,102132.95
2022-10-05T16:12:32.365Z,102139.15
2022-10-05T16:15:33.439Z,102140.84
2022-10-05T16:18:22.164Z,102141.65
2022-10-05T16:21:01.224Z,102140.01
2022-10-05T16:23:49.880Z,102143.69
2022-10-05T16:26:21.612Z,102151.85
2022-10-05T16:28:51.012Z,102153.50
2022-10-05T16:31:22.357Z,102154.02
2022-10-05T16:34:09.713Z,102154.85
2022-10-05T16:36:44.954Z,102153.51
2022-10-05T16:39:21.219Z,102156.66
2022-10-05T16:42:05.881Z,102158.30
2022-10-05T16:44:34.159Z,102164.98
2022-10-05T16:47:25.145Z,102172.34
2022-10-05T16:50:14.542Z,102173.86
2022-10-05T16:52:46.096Z,102175.25
2022-10-05T16:55:27.106Z,102184.13
2022-10-05T16:57:57.215Z,102187.77
2022-10-05T17:00:28.444Z,102185.81
2022-10-05T17:03:15.763Z,102187.88
2022-10-05T17:06:13.279Z,102190.66
2022-10-05T17:09:24.614Z,102194.07
2022-10-05T17:12:36.001Z,102194.65
2022-10-05T17:15:30.391Z,102197.34
2022-10-05T17:18:28.471Z,102196.62
2022-10-05T17:21:08.215Z,102200.15
2022-10-05T17:23:39.817Z,102199.52
2022-10-05T17:26:23.612Z,102203.77
2022-10-05T17:29:09.633Z,102205.06
2022-10-05T17:31:56.622Z,102205.19
2022-10-05T17:34:26.767Z,102205.48
2022-10-05T17:37:00.145Z,102204.52
2022-10-05T17:39:44.189Z,102211.08
2022-10-05T17:42:30.599Z,102213.79
2022-10-05T17:45:14.840Z,102218.14
2022-10-05T17:47:58.686Z,102221.39
2022-10-05T17:51:02.806Z,102223.45
2022-10-05T17:53:53.511Z,102225.29
2022-10-05T17:56:23.238Z,102229.90
2022-10-05T17:58:54.871Z,102232.91
2022-10-05T18:01:31.196Z,102235.83
2022-10-05T18:04:11.496Z,102236.47
2022-10-05T18:06:45.000Z,102233.96
2022-10-05T18:09:13.376Z,102232.05
2022-10-05T18:11:43.204Z,102230.34
2022-10-05T18:14:24.924Z,102231.48
2022-10-05T18:17:00.021Z,102231.30
2022-10-05T18:19:31.855Z,102230.45
2022-10-05T18:22:03.700Z,102229.95
2022-10-05T18:24:44.090Z,102228.45
2022-10-05T18:27:18.565Z,102223.21
2022-10-05T18:30:09.216Z,102226.21
2022-10-05T18:32:56.453Z,102227.77
2022-10-05T18:35:38.346Z,102225.02
2022-10-05T18:38:15.947Z,102227.17
2022-10-05T18:40:47.093Z,102226.36
2022-10-05T18:43:22.687Z,102227.55
2022-10-05T18:46:22.191Z,102227.42
2022-10-05T18:49:06.400Z,102232.10
2022-10-05T18:51:51.912Z,102234.52
2022-10-05T18:54:39.515Z,102234.15
2022-10-05T18:57:34.822Z,102232.20
2022-10-05T19:00:25.321Z,102231.63
2022-10-05T19:03:21.860Z,102233.67
2022-10-05T19:06:13.238Z,102232.27
2022-10-05T19:09:07.790Z,102239.52
2022-10-05T19:11:45.245Z,102237.84
2022-10-05T19:14:36.481Z,102239.31
2022-10-05T19:17:24.521Z,102240.99
2022-10-05T19:19:56.079Z,102237.64
2022-10-05T19:22:50.362Z,102237.90
2022-10-05T19:25:42.796Z,102237.47
2022-10-05T19:28:29.157Z,102238.44
2022-10-05T19:31:13.818Z,102243.77
2022-10-05T19:33:42.352Z,102241.35
2022-10-05T19:36:22.304Z,102242.82
2022-10-05T19:39:39.329Z,102249.29
2022-10-05T19:42:27.574Z,102246.30
2022-10-05T19:45:15.899Z,102252.79
2022-10-05T19:48:39.363Z,102254.11
2022-10-05T19:51:50.346Z,102248.03
2022-10-05T19:58:36.699Z,102249.89
2022-10-05T20:01:45.414Z,102245.51
2022-10-05T20:04:53.721Z,102246.63
2022-10-05T20:08:01.923Z,102247.23
2022-10-05T20:11:10.170Z,102245.59
2022-10-05T20:14:20.891Z,102246.92
2022-10-05T20:17:27.825Z,102247.45
2022-10-05T20:20:45.754Z,102247.34
2022-10-05T20:24:00.497Z,102248.36
2022-10-05T20:27:10.476Z,102253.22
2022-10-05T20:29:41.933Z,102254.08
2022-10-05T20:32:12.427Z,102259.55
2022-10-05T20:34:45.255Z,102257.73
2022-10-05T20:37:17.524Z,102257.98
2022-10-05T20:39:46.052Z,102257.17
2022-10-05T20:42:15.000Z,102255.30
2022-10-05T20:44:43.278Z,102256.97
2022-10-05T20:47:12.011Z,102257.80
2022-10-05T20:49:44.849Z,102255.22
2022-10-05T20:52:15.311Z,102254.70
2022-10-05T20:57:14.112Z,102252.08
2022-10-05T20:59:42.515Z,102249.22
2022-10-05T21:02:10.945Z,102247.28
2022-10-05T21:04:41.410Z,102249.05
2022-10-05T21:07:10.575Z,102249.05
2022-10-05T21:09:41.102Z,102244.29
2022-10-05T21:12:09.894Z,102242.34
2022-10-05T21:14:38.684Z,102239.52
2022-10-05T21:17:07.470Z,102238.46
2022-10-05T21:19:39.953Z,102235.98
2022-10-05T21:22:09.827Z,102236.87
2022-10-05T21:24:39.060Z,102238.85
2022-10-05T21:27:08.655Z,102232.02
2022-10-05T21:29:37.459Z,102232.99
2022-10-05T21:32:08.870Z,102228.59
2022-10-05T21:34:40.361Z,102233.13
2022-10-05T21:37:08.849Z,102230.16
2022-10-05T21:39:37.121Z,102228.09
2022-10-05T21:42:05.915Z,102223.20
2022-10-05T21:44:34.454Z,102219.98
2022-10-05T21:47:02.692Z,102220.60
2022-10-05T21:49:31.663Z,102218.40
2022-10-05T21:52:01.295Z,102216.39
2022-10-05T21:54:29.957Z,102212.42
2022-10-05T21:56:59.257Z,102212.92
2022-10-05T21:59:29.845Z,102214.17
2022-10-05T22:01:58.681Z,102215.71
2022-10-05T22:04:27.471Z,102215.79
2022-10-05T22:06:55.848Z,102212.98
2022-10-05T22:09:24.436Z,102212.41
2022-10-05T22:11:52.916Z,102205.31
2022-10-05T22:14:21.707Z,102207.95
2022-10-05T22:16:50.159Z,102204.61
2022-10-05T22:19:19.693Z,102202.63
2022-10-05T22:21:48.191Z,102202.02
2022-10-05T22:24:16.580Z,102200.91
2022-10-05T22:26:46.774Z,102197.36
2022-10-05T22:29:16.083Z,102198.52
2022-10-05T22:31:49.151Z,102202.33
2022-10-05T22:34:18.470Z,102199.83
2022-10-05T22:36:47.690Z,102189.79
2022-10-05T22:39:16.974Z,102189.36
2022-10-05T22:41:45.689Z,102188.69
2022-10-05T22:44:14.650Z,102190.80
2022-10-05T22:46:43.336Z,102186.73
2022-10-05T22:49:12.128Z,102187.63
2022-10-05T22:51:40.404Z,102183.52
2022-10-05T22:54:08.884Z,102181.04
2022-10-05T22:56:37.366Z,102182.06
2022-10-05T22:59:05.747Z,102178.97
2022-10-05T23:01:34.287Z,102175.73
2022-10-05T23:04:03.018Z,102172.49
2022-10-05T23:06:31.506Z,102172.40
2022-10-05T23:08:59.864Z,102176.16
2022-10-05T23:11:28.360Z,102176.52
2022-10-05T23:13:57.171Z,102177.17
2022-10-05T23:16:27.105Z,102175.04
2022-10-05T23:18:56.166Z,102177.48
2022-10-05T23:21:25.464Z,102179.94
2022-10-05T23:23:54.149Z,102174.57
2022-10-05T23:26:23.665Z,102178.54
2022-10-05T23:28:52.344Z,102182.55
2022-10-05T23:31:25.536Z,102186.14
2022-10-05T23:33:54.531Z,102186.69
2022-10-05T23:36:24.033Z,102186.90
2022-10-05T23:38:53.126Z,102181.62
2022-10-05T23:41:21.615Z,102175.33
2022-10-05T23:43:50.103Z,102177.61
2022-10-05T23:46:18.543Z,102174.26
2022-10-05T23:48:47.264Z,102174.59
2022-10-05T23:51:15.966Z,102172.14
2022-10-05T23:53:44.640Z,102175.70
2022-10-05T23:56:13.634Z,102173.78
2022-10-05T23:58:41.915Z,102174.64
